Accueil
METAR-TAF:

METAR-TAF

Aéroports :

Aéroport international de Damas

Damas, Syrie

latitude: 33-25N, longitude: 036-31E, altitude: 608 m

Observation

Le bulletin a été fait il y a 24 minutes, à 21:00 UTC
Vent 8 kt de nord/nord-est
Température 12°C
Humidité 82%
Pression 1020 hPa
Visibilité 10 km ou plus
pas de nuages en-dessous de 1500 mètres et pas de cumulonimbus.

METAR: OSDI 182100Z 03008KT CAVOK 12/09 Q1020

Heure: 23:24 (21:24 UTC)

Prévision

Prévision valable du 18 à 18 UTC au 19 à 24 UTC
Vent 3 kt de direction variable
Visibilité 10 km ou plus
pas de nuages en-dessous de 1500 mètres et pas de cumulonimbus.
Probabilité 30% :
Temporairement
du 19 à 00 UTC au 19 à 06 UTC
Vent 3 kt de direction variable
Visibilité: 3000 m
brume

TAF: OSDI 1818/1924 VRB03KT CAVOK PROB30 TEMPO 1900/1906 VRB03KT 3000 BR

Observations et prévisions météorologiques de plus de 4000 aéroports (messages METAR et TAF).

Les stations disponibles sont représentées par des disques jaunes et rouges sur la carte.

Passer la souris dessus pour voir le nom de la station.

Cliquer dessus pour voir les observations et prévisions météorologiques.

Pour changer de carte: cliquez sur les boutons verts avec une croix noire pour zoomer, sur le bouton vert avec un tiret pour effectuer un zoom arrière, ou sur les flèches vertes pour les cartes adjacentes.


METAR-TAF: